Time;durP1;ratioP1;P1;durP2;ratioP2;P2;SDS_P1;SDS_P2;PMS_P1;PMS_P2;Temp;Humidity;BMP_temperature;BMP_pressure;BME280_temperature;BME280_humidity;BME280_pressure;Samples;Min_cycle;Max_cycle;Signal;HPM_P1;HPM_P2
2023/11/28 00:01:38;;;;;;;6.00;5.60;;;5.40;99.90;;;;;;5014288;28;20890;-70
2023/11/28 00:04:04;;;;;;;5.27;4.80;;;5.30;99.90;;;;;;4992074;28;20422;-69
2023/11/28 00:06:30;;;;;;;5.17;4.77;;;5.40;99.90;;;;;;5014680;28;20180;-69
2023/11/28 00:08:56;;;;;;;5.20;4.87;;;5.30;99.90;;;;;;5013800;28;20175;-69
2023/11/28 00:11:22;;;;;;;5.47;4.97;;;5.30;99.90;;;;;;5014184;28;20176;-69
2023/11/28 00:13:50;;;;;;;4.85;4.45;;;5.30;99.90;;;;;;5014148;28;20551;-70
2023/11/28 00:16:16;;;;;;;4.90;4.45;;;5.30;99.90;;;;;;5013929;28;20175;-70
2023/11/28 00:18:42;;;;;;;4.68;4.20;;;5.40;99.90;;;;;;5014230;28;20508;-70
2023/11/28 00:21:08;;;;;;;5.15;4.68;;;5.40;99.90;;;;;;5013380;28;20198;-70
2023/11/28 00:23:34;;;;;;;4.70;4.17;;;5.40;99.90;;;;;;5013749;28;20172;-69
2023/11/28 00:25:59;;;;;;;4.53;4.23;;;5.40;99.90;;;;;;5013198;28;20784;-70
2023/11/28 00:28:25;;;;;;;4.77;4.40;;;5.20;99.90;;;;;;5014062;28;20171;-69
2023/11/28 00:30:52;;;;;;;4.30;4.00;;;5.20;99.90;;;;;;5013787;28;20168;-70
2023/11/28 00:33:18;;;;;;;4.32;4.00;;;5.30;99.90;;;;;;5013389;28;20207;-70
2023/11/28 00:35:45;;;;;;;5.13;4.10;;;5.30;99.90;;;;;;5013811;28;20178;-69
2023/11/28 00:38:10;;;;;;;4.38;4.15;;;5.30;99.90;;;;;;5012964;28;20661;-69
2023/11/28 00:40:36;;;;;;;5.00;4.60;;;5.20;99.90;;;;;;5013467;28;20164;-69
2023/11/28 00:43:03;;;;;;;4.60;4.30;;;5.20;99.90;;;;;;5013092;28;20532;-69
2023/11/28 00:45:30;;;;;;;6.13;5.63;;;5.30;99.90;;;;;;5013671;28;20298;-68
2023/11/28 00:47:55;;;;;;;5.35;4.95;;;5.20;99.90;;;;;;5013064;28;20171;-68
2023/11/28 00:50:21;;;;;;;6.00;5.60;;;5.20;99.90;;;;;;5013712;28;20180;-69
2023/11/28 00:52:48;;;;;;;6.17;5.67;;;5.10;99.90;;;;;;5013165;28;20222;-69
2023/11/28 00:55:15;;;;;;;5.60;5.20;;;5.10;99.90;;;;;;5012230;28;20955;-69
2023/11/28 00:57:44;;;;;;;4.75;4.35;;;5.10;99.90;;;;;;5013160;28;20540;-69
2023/11/28 01:00:12;;;;;;;5.22;4.82;;;5.00;99.90;;;;;;5012672;28;20175;-69
2023/11/28 01:02:39;;;;;;;5.68;5.18;;;5.00;99.90;;;;;;5012994;28;20179;-69
2023/11/28 01:05:08;;;;;;;4.68;4.28;;;5.10;99.90;;;;;;5012797;28;20180;-69
2023/11/28 01:07:34;;;;;;;5.10;4.70;;;5.10;99.90;;;;;;4995734;28;20172;-69
2023/11/28 01:09:59;;;;;;;4.40;4.10;;;5.20;99.90;;;;;;5012769;28;20179;-69
2023/11/28 01:12:25;;;;;;;4.53;4.13;;;5.10;99.90;;;;;;5013086;28;20460;-70
2023/11/28 01:14:51;;;;;;;4.53;4.23;;;5.20;99.90;;;;;;5013152;28;20583;-69
2023/11/28 01:17:17;;;;;;;4.40;4.10;;;5.40;99.90;;;;;;5012516;28;20457;-68
2023/11/28 01:19:43;;;;;;;4.50;4.20;;;5.50;99.90;;;;;;5012730;28;20175;-69
2023/11/28 01:22:11;;;;;;;5.20;4.60;;;5.40;99.90;;;;;;5012250;28;20384;-69
2023/11/28 01:24:37;;;;;;;4.82;4.50;;;5.20;99.90;;;;;;5013071;28;20210;-73
2023/11/28 01:27:04;;;;;;;5.10;4.70;;;5.20;99.90;;;;;;4994978;28;20180;-70
2023/11/28 01:29:30;;;;;;;4.60;4.30;;;5.20;99.90;;;;;;4995266;28;20531;-69
2023/11/28 01:31:56;;;;;;;5.00;4.60;;;5.30;99.90;;;;;;4994825;28;20180;-70
2023/11/28 01:34:22;;;;;;;4.07;3.78;;;5.30;99.90;;;;;;5012570;28;20457;-70
2023/11/28 01:36:49;;;;;;;3.70;3.50;;;5.20;99.90;;;;;;5012916;28;20225;-71
2023/11/28 01:39:15;;;;;;;4.10;3.80;;;4.80;99.90;;;;;;5012337;28;20631;-72
2023/11/28 01:41:42;;;;;;;3.80;3.60;;;5.10;99.90;;;;;;4994613;28;20183;-72
2023/11/28 01:44:08;;;;;;;4.40;4.10;;;5.20;99.90;;;;;;5012191;28;20392;-72
2023/11/28 01:46:35;;;;;;;4.00;3.80;;;5.10;99.90;;;;;;5012504;28;20175;-73
2023/11/28 01:49:02;;;;;;;4.22;3.97;;;5.10;99.90;;;;;;5011707;28;20415;-72
2023/11/28 01:51:29;;;;;;;4.40;4.10;;;5.30;99.90;;;;;;5012606;28;20163;-72
2023/11/28 01:53:58;;;;;;;4.70;4.40;;;5.20;99.90;;;;;;5012101;28;20684;-73
2023/11/28 01:56:28;;;;;;;4.70;4.40;;;5.20;99.90;;;;;;5012600;28;20258;-73
2023/11/28 01:58:54;;;;;;;3.97;3.78;;;5.10;99.90;;;;;;5012728;28;20190;-73
2023/11/28 02:01:21;;;;;;;3.88;3.67;;;5.00;99.90;;;;;;5011947;28;20194;-73
2023/11/28 02:03:48;;;;;;;4.28;3.80;;;5.10;99.90;;;;;;5012151;28;20191;-73
2023/11/28 02:06:14;;;;;;;4.10;3.80;;;5.00;99.90;;;;;;5011743;28;20197;-73
2023/11/28 02:08:41;;;;;;;4.50;4.07;;;5.00;99.90;;;;;;5012620;28;20259;-73
2023/11/28 02:11:07;;;;;;;4.60;4.30;;;4.80;99.90;;;;;;5011728;28;20446;-73
2023/11/28 02:13:33;;;;;;;4.72;4.47;;;4.80;99.90;;;;;;4997892;28;20686;-73
2023/11/28 02:16:08;;;;;;;5.23;4.93;;;4.90;99.90;;;;;;5015626;28;20164;-73
2023/11/28 02:18:33;;;;;;;5.10;4.80;;;4.80;99.90;;;;;;5016603;28;20433;-73
2023/11/28 02:20:59;;;;;;;4.80;4.50;;;4.60;99.90;;;;;;4998096;28;20214;-72
2023/11/28 02:23:25;;;;;;;4.60;4.40;;;4.70;99.90;;;;;;5016283;28;20509;-73
2023/11/28 02:25:55;;;;;;;5.57;5.17;;;4.90;99.90;;;;;;5016405;28;20377;-72
2023/11/28 02:28:24;;;;;;;5.22;4.93;;;4.80;99.90;;;;;;5015824;28;20290;-73
2023/11/28 02:30:53;;;;;;;5.15;4.85;;;4.80;99.90;;;;;;5016532;28;20179;-73
2023/11/28 02:33:19;;;;;;;5.35;5.05;;;4.80;99.90;;;;;;5014856;28;20215;-73
2023/11/28 02:35:45;;;;;;;5.30;5.00;;;4.90;99.90;;;;;;5016023;28;20172;-73
2023/11/28 02:38:15;;;;;;;5.72;5.30;;;4.80;99.90;;;;;;5015809;28;20179;-73
2023/11/28 02:40:41;;;;;;;5.82;5.35;;;4.80;99.90;;;;;;5016095;28;20250;-73
2023/11/28 02:43:07;;;;;;;5.90;5.50;;;4.50;99.90;;;;;;5015217;28;20167;-73
2023/11/28 02:45:33;;;;;;;5.93;5.63;;;4.60;99.90;;;;;;5015920;28;20178;-72
2023/11/28 02:47:59;;;;;;;5.87;5.37;;;4.60;99.90;;;;;;5015304;28;20414;-69
2023/11/28 02:50:25;;;;;;;6.20;5.80;;;4.60;99.90;;;;;;5016004;28;20167;-73
2023/11/28 02:52:51;;;;;;;6.00;5.60;;;4.60;99.90;;;;;;5015573;28;20961;-72
2023/11/28 02:55:17;;;;;;;5.80;5.40;;;4.70;99.90;;;;;;4997671;28;20436;-73
2023/11/28 02:57:44;;;;;;;5.37;4.97;;;4.70;99.90;;;;;;5015324;28;20537;-72
2023/11/28 03:00:11;;;;;;;5.82;5.43;;;4.80;99.90;;;;;;5015152;28;20421;-72
2023/11/28 03:02:36;;;;;;;5.30;5.00;;;4.60;99.90;;;;;;5015454;28;20179;-72
2023/11/28 03:05:03;;;;;;;5.95;5.55;;;4.70;99.90;;;;;;4981040;28;20226;-70
2023/11/28 03:07:29;;;;;;;5.32;5.03;;;4.70;99.90;;;;;;5015577;28;20190;-71
2023/11/28 03:09:55;;;;;;;5.53;5.03;;;4.80;99.90;;;;;;5015802;28;20260;-72
2023/11/28 03:12:21;;;;;;;5.63;5.13;;;4.80;99.90;;;;;;5014879;28;20489;-71
2023/11/28 03:14:46;;;;;;;5.20;4.80;;;4.80;99.90;;;;;;5015192;28;20519;-71
2023/11/28 03:17:12;;;;;;;5.13;4.83;;;4.30;99.90;;;;;;5014440;28;20703;-71
2023/11/28 03:19:38;;;;;;;5.33;4.93;;;4.80;99.90;;;;;;5015263;28;20258;-71
2023/11/28 03:22:04;;;;;;;5.53;5.13;;;4.80;99.90;;;;;;5014600;28;20546;-71
2023/11/28 03:24:32;;;;;;;5.57;5.17;;;4.70;99.90;;;;;;5014957;28;20179;-72
2023/11/28 03:26:57;;;;;;;5.55;5.15;;;4.70;99.90;;;;;;5015204;28;20167;-72
2023/11/28 03:29:23;;;;;;;6.40;5.80;;;4.90;99.90;;;;;;5014680;28;20167;-71
2023/11/28 03:31:49;;;;;;;5.70;5.30;;;4.80;99.90;;;;;;5015105;28;20183;-71
2023/11/28 03:34:14;;;;;;;6.03;5.63;;;4.70;99.90;;;;;;5014197;28;20220;-71
2023/11/28 03:36:40;;;;;;;5.87;5.47;;;4.80;99.90;;;;;;5015057;28;20179;-71
2023/11/28 03:39:06;;;;;;;6.07;5.67;;;4.40;99.90;;;;;;5014507;28;20514;-71
2023/11/28 03:41:32;;;;;;;5.70;5.30;;;4.70;99.90;;;;;;5014911;28;20175;-71
2023/11/28 03:43:58;;;;;;;6.88;6.38;;;4.60;99.90;;;;;;5014746;28;20199;-71
2023/11/28 03:46:24;;;;;;;5.80;5.40;;;4.70;99.90;;;;;;5014266;28;20172;-72
2023/11/28 03:48:50;;;;;;;6.07;5.65;;;4.70;99.90;;;;;;5014792;28;20651;-72
2023/11/28 03:51:16;;;;;;;5.73;5.33;;;4.80;99.90;;;;;;5014195;28;20205;-71
2023/11/28 03:53:42;;;;;;;5.23;4.90;;;4.80;99.90;;;;;;5014009;28;20273;-72
2023/11/28 03:56:09;;;;;;;6.17;5.67;;;5.00;99.90;;;;;;5013973;28;20804;-72
2023/11/28 03:58:35;;;;;;;5.57;5.18;;;4.90;99.90;;;;;;5014946;28;20406;-71
2023/11/28 04:01:02;;;;;;;6.40;5.95;;;5.00;99.90;;;;;;5014542;28;20171;-71
2023/11/28 04:03:28;;;;;;;6.00;5.60;;;4.90;99.90;;;;;;5014135;28;20187;-70
2023/11/28 04:05:55;;;;;;;5.35;5.05;;;4.10;99.90;;;;;;5013947;28;20179;-72
2023/11/28 04:08:21;;;;;;;6.15;5.70;;;4.40;99.90;;;;;;5013819;28;20183;-72
2023/11/28 04:10:47;;;;;;;6.30;5.70;;;4.50;99.90;;;;;;5014382;28;20552;-72
2023/11/28 04:13:13;;;;;;;6.50;6.00;;;4.50;99.90;;;;;;5013778;28;20250;-71
2023/11/28 04:15:39;;;;;;;5.50;5.10;;;4.40;99.90;;;;;;5014037;28;20309;-71
2023/11/28 04:18:05;;;;;;;6.70;6.10;;;4.50;99.90;;;;;;5013390;28;20403;-71
2023/11/28 04:20:31;;;;;;;6.55;5.95;;;4.30;99.90;;;;;;5014449;28;20522;-72
2023/11/28 04:22:57;;;;;;;7.40;6.87;;;4.50;99.90;;;;;;4996658;28;20171;-71
2023/11/28 04:25:25;;;;;;;6.23;5.73;;;4.40;99.90;;;;;;5013627;28;20589;-72
2023/11/28 04:27:51;;;;;;;6.22;5.72;;;4.30;99.90;;;;;;5014010;28;20392;-72
2023/11/28 04:30:17;;;;;;;7.03;6.33;;;4.40;99.90;;;;;;5013523;28;20176;-72
2023/11/28 04:32:43;;;;;;;6.50;5.90;;;4.60;99.90;;;;;;5013896;28;20532;-72
2023/11/28 04:35:09;;;;;;;7.25;6.65;;;4.60;99.90;;;;;;5012388;28;20663;-72
2023/11/28 04:37:35;;;;;;;7.03;6.33;;;4.70;99.90;;;;;;5013840;28;20178;-71
2023/11/28 04:40:01;;;;;;;7.60;6.93;;;4.70;99.90;;;;;;5013901;28;20420;-73
2023/11/28 04:42:27;;;;;;;7.05;6.20;;;4.60;99.90;;;;;;5013329;28;20424;-71
2023/11/28 04:44:54;;;;;;;7.15;6.55;;;4.70;99.90;;;;;;5013582;28;20194;-70
2023/11/28 04:47:20;;;;;;;7.88;7.18;;;4.80;99.90;;;;;;5013220;28;20175;-72
2023/11/28 04:49:46;;;;;;;7.83;7.03;;;4.70;99.90;;;;;;4996050;28;20626;-71
2023/11/28 04:52:11;;;;;;;6.80;6.27;;;4.70;99.90;;;;;;5012689;28;20487;-71
2023/11/28 04:54:37;;;;;;;7.23;6.50;;;4.80;99.90;;;;;;5013615;28;20207;-71
2023/11/28 04:57:04;;;;;;;7.57;6.87;;;4.80;99.90;;;;;;5013329;28;20623;-71
2023/11/28 04:59:31;;;;;;;7.45;6.75;;;4.70;99.90;;;;;;4996257;28;20198;-69
2023/11/28 05:01:57;;;;;;;7.70;6.90;;;4.60;99.90;;;;;;5013343;28;20175;-72
2023/11/28 05:04:23;;;;;;;8.38;7.45;;;4.70;99.90;;;;;;5012749;28;20187;-72
2023/11/28 05:06:49;;;;;;;8.00;7.30;;;4.70;99.90;;;;;;5013492;28;20202;-73
2023/11/28 05:09:17;;;;;;;8.07;7.47;;;4.20;99.90;;;;;;5012731;28;20380;-72
2023/11/28 05:11:46;;;;;;;7.60;6.90;;;4.30;99.90;;;;;;5013103;28;20381;-71
2023/11/28 05:14:12;;;;;;;8.10;7.40;;;4.20;99.90;;;;;;5012504;28;20292;-71
2023/11/28 05:16:38;;;;;;;8.32;7.40;;;4.50;99.90;;;;;;5012792;28;20175;-72
2023/11/28 05:19:05;;;;;;;8.00;7.40;;;4.60;99.90;;;;;;4995778;28;20171;-72
2023/11/28 05:21:31;;;;;;;9.27;7.68;;;4.50;99.90;;;;;;5013061;28;20179;-71
2023/11/28 05:23:57;;;;;;;9.45;8.65;;;4.50;99.90;;;;;;5012711;28;20176;-72
2023/11/28 05:26:23;;;;;;;7.57;6.80;;;4.60;99.90;;;;;;5012308;28;20178;-72
2023/11/28 05:28:49;;;;;;;10.27;9.37;;;4.70;99.90;;;;;;5012984;28;20773;-72
2023/11/28 05:31:14;;;;;;;9.93;8.93;;;4.60;99.90;;;;;;5012456;28;20374;-72
2023/11/28 05:33:40;;;;;;;7.10;6.40;;;4.60;99.90;;;;;;5012385;28;20273;-71
2023/11/28 05:36:07;;;;;;;8.53;7.87;;;4.70;99.90;;;;;;5012700;28;20418;-61
2023/11/28 05:38:33;;;;;;;8.73;7.95;;;4.60;99.90;;;;;;5012953;28;20222;-71
2023/11/28 05:40:59;;;;;;;9.90;8.90;;;4.60;99.90;;;;;;5012925;28;20171;-72
2023/11/28 05:43:32;;;;;;;7.95;6.97;;;4.60;99.90;;;;;;5011887;28;20422;-71
2023/11/28 05:45:59;;;;;;;8.13;7.10;;;4.70;99.90;;;;;;5012356;28;20278;-71
2023/11/28 05:48:25;;;;;;;10.20;9.30;;;4.70;99.90;;;;;;5011726;28;20198;-71
2023/11/28 05:50:51;;;;;;;7.75;7.05;;;4.70;99.90;;;;;;4995433;28;20697;-71
2023/11/28 05:53:19;;;;;;;7.85;7.15;;;4.50;99.90;;;;;;5011954;28;20219;-71
2023/11/28 05:55:46;;;;;;;6.43;5.82;;;4.60;99.90;;;;;;5012695;28;20172;-70
2023/11/28 05:58:12;;;;;;;10.32;8.70;;;4.60;99.90;;;;;;5012078;28;20167;-70
2023/11/28 06:00:38;;;;;;;8.70;7.80;;;4.60;99.90;;;;;;5012968;28;20241;-71
2023/11/28 06:03:05;;;;;;;8.67;7.87;;;4.50;99.90;;;;;;4995188;28;20682;-72
2023/11/28 06:05:31;;;;;;;10.52;7.95;;;4.70;99.90;;;;;;4978134;28;20175;-71
2023/11/28 06:07:57;;;;;;;8.45;7.53;;;4.50;99.90;;;;;;5012134;28;20174;-71
2023/11/28 06:10:23;;;;;;;11.30;7.65;;;4.60;99.90;;;;;;5012035;28;20258;-71
2023/11/28 06:12:49;;;;;;;9.70;8.57;;;4.50;99.90;;;;;;5012821;28;20250;-71
2023/11/28 06:15:15;;;;;;;10.27;9.30;;;4.70;99.90;;;;;;5011956;28;20432;-72
2023/11/28 06:17:40;;;;;;;8.43;7.70;;;4.60;99.90;;;;;;5012236;28;20171;-72
2023/11/28 06:20:07;;;;;;;11.50;10.20;;;4.40;99.90;;;;;;5012618;28;20399;-71
2023/11/28 06:22:32;;;;;;;8.75;7.93;;;4.50;99.90;;;;;;5011262;28;20195;-72
2023/11/28 06:24:58;;;;;;;9.23;7.80;;;4.40;99.90;;;;;;5012266;28;20645;-72
2023/11/28 06:27:25;;;;;;;8.10;7.33;;;4.40;99.90;;;;;;5011460;28;20369;-73
2023/11/28 06:29:51;;;;;;;9.90;7.30;;;4.30;99.90;;;;;;5012386;28;20415;-72
2023/11/28 06:32:16;;;;;;;8.97;8.07;;;4.20;99.90;;;;;;4994090;28;20171;-72
2023/11/28 06:34:44;;;;;;;9.77;8.77;;;4.50;99.90;;;;;;4994593;28;20210;-72
2023/11/28 06:37:10;;;;;;;8.15;7.35;;;4.60;99.90;;;;;;4993949;28;20703;-70
2023/11/28 06:39:36;;;;;;;8.43;7.60;;;4.30;99.90;;;;;;5011942;28;20262;-70
2023/11/28 06:42:02;;;;;;;7.67;6.77;;;4.20;99.90;;;;;;5012404;28;20254;-71
2023/11/28 06:44:28;;;;;;;8.00;7.20;;;4.20;99.90;;;;;;5011660;28;20601;-71
2023/11/28 06:46:55;;;;;;;9.65;8.70;;;4.30;99.90;;;;;;5012067;28;20381;-71
2023/11/28 06:49:21;;;;;;;10.10;9.10;;;4.30;99.90;;;;;;5011904;28;20188;-71
2023/11/28 06:51:47;;;;;;;10.53;9.57;;;4.30;99.90;;;;;;5011674;28;20263;-71
2023/11/28 06:54:13;;;;;;;8.35;7.65;;;4.40;99.90;;;;;;5011585;28;20266;-71
2023/11/28 06:56:39;;;;;;;9.63;8.73;;;4.40;99.90;;;;;;5012179;28;20214;-71
2023/11/28 06:59:05;;;;;;;8.40;7.60;;;4.50;99.90;;;;;;5014159;28;20179;-71
2023/11/28 07:01:33;;;;;;;7.93;7.13;;;4.50;99.90;;;;;;5014380;28;20420;-70
2023/11/28 07:03:59;;;;;;;7.97;7.18;;;4.40;99.90;;;;;;5015169;28;20222;-71
2023/11/28 07:06:25;;;;;;;9.73;8.85;;;4.40;99.90;;;;;;5015031;28;20167;-71
2023/11/28 07:08:51;;;;;;;6.90;6.30;;;4.40;99.90;;;;;;5015461;28;20171;-72
2023/11/28 07:11:20;;;;;;;7.90;7.10;;;4.30;99.90;;;;;;5015019;28;20175;-72
2023/11/28 07:13:47;;;;;;;7.47;6.78;;;4.30;99.90;;;;;;5015307;28;20451;-70
2023/11/28 07:16:13;;;;;;;7.68;6.90;;;4.50;99.90;;;;;;4997276;28;20183;-71
2023/11/28 07:18:40;;;;;;;6.57;5.97;;;4.40;99.90;;;;;;5015195;28;20314;-72
2023/11/28 07:21:06;;;;;;;6.22;5.70;;;4.30;99.90;;;;;;5015518;28;20175;-72
2023/11/28 07:23:33;;;;;;;6.70;5.97;;;4.40;99.90;;;;;;5014822;28;20175;-71
2023/11/28 07:25:59;;;;;;;7.95;7.28;;;4.60;99.90;;;;;;5015283;28;20176;-72
2023/11/28 07:28:25;;;;;;;7.27;6.60;;;4.70;99.90;;;;;;4996935;28;20175;-72
2023/11/28 07:30:51;;;;;;;7.20;6.50;;;4.40;99.90;;;;;;5015167;28;20179;-72
2023/11/28 07:33:18;;;;;;;8.23;6.32;;;4.50;99.90;;;;;;5014638;28;20454;-71
2023/11/28 07:35:44;;;;;;;7.40;6.82;;;4.40;99.90;;;;;;5015053;28;20262;-72
2023/11/28 07:38:10;;;;;;;8.73;7.82;;;4.60;99.90;;;;;;5014621;28;20631;-70
2023/11/28 07:40:37;;;;;;;6.77;6.17;;;4.40;99.90;;;;;;5014479;28;20164;-71
2023/11/28 07:43:04;;;;;;;9.27;8.57;;;4.30;99.90;;;;;;4997493;28;20422;-71
2023/11/28 07:45:30;;;;;;;6.93;6.25;;;4.40;99.90;;;;;;5014194;28;20187;-70
2023/11/28 07:47:57;;;;;;;8.55;7.85;;;4.50;99.90;;;;;;5014704;28;20179;-72
2023/11/28 07:50:23;;;;;;;8.23;7.60;;;4.40;99.90;;;;;;5014310;28;20183;-72
2023/11/28 07:52:51;;;;;;;8.68;6.68;;;4.50;99.90;;;;;;5014532;28;20223;-71
2023/11/28 07:55:17;;;;;;;6.15;5.65;;;4.50;99.90;;;;;;5014047;28;20211;-70
2023/11/28 07:57:44;;;;;;;6.67;5.80;;;4.40;99.90;;;;;;5014895;28;20209;-72
2023/11/28 08:00:11;;;;;;;6.88;6.07;;;4.50;99.90;;;;;;5014576;28;20403;-71
2023/11/28 08:02:36;;;;;;;7.20;6.50;;;4.60;99.90;;;;;;5013743;28;20175;-71
2023/11/28 08:05:04;;;;;;;7.77;7.07;;;4.60;99.90;;;;;;5014569;28;20329;-72
2023/11/28 08:07:32;;;;;;;6.40;5.80;;;4.60;99.90;;;;;;5013279;28;20174;-71
2023/11/28 08:09:58;;;;;;;6.75;6.15;;;4.50;99.90;;;;;;5013353;28;20237;-72
2023/11/28 08:12:24;;;;;;;6.07;5.55;;;4.50;99.90;;;;;;5013711;28;20193;-72
2023/11/28 08:14:52;;;;;;;7.07;6.37;;;4.40;99.90;;;;;;5014373;28;20207;-73
2023/11/28 08:17:17;;;;;;;6.65;6.05;;;4.50;99.90;;;;;;5013720;28;20230;-71
2023/11/28 08:19:43;;;;;;;6.20;5.60;;;4.40;99.90;;;;;;5014029;28;20164;-72
2023/11/28 08:22:09;;;;;;;7.07;5.50;;;4.20;99.90;;;;;;5014085;28;20856;-72
2023/11/28 08:24:35;;;;;;;6.37;5.77;;;4.30;99.90;;;;;;5013410;28;20433;-72
2023/11/28 08:27:00;;;;;;;6.17;5.60;;;4.40;99.90;;;;;;5014339;28;20274;-72
2023/11/28 08:29:26;;;;;;;6.30;5.90;;;4.40;99.90;;;;;;5013374;28;20627;-72
2023/11/28 08:31:52;;;;;;;5.27;4.87;;;4.10;99.90;;;;;;5013971;28;20183;-72
2023/11/28 08:34:19;;;;;;;6.23;5.83;;;4.40;99.90;;;;;;5013180;28;20253;-71
2023/11/28 08:36:45;;;;;;;5.75;5.35;;;4.40;99.90;;;;;;5014042;28;20217;-72
2023/11/28 08:39:14;;;;;;;5.80;5.40;;;4.40;99.90;;;;;;4996204;28;20214;-72
2023/11/28 08:41:41;;;;;;;5.60;5.13;;;4.40;99.90;;;;;;5013509;28;20373;-72
2023/11/28 08:44:08;;;;;;;5.75;5.25;;;4.30;99.90;;;;;;5013788;28;20194;-72
2023/11/28 08:46:35;;;;;;;6.10;5.60;;;3.90;99.90;;;;;;5013252;28;20175;-72
2023/11/28 08:49:01;;;;;;;5.63;5.22;;;4.60;99.90;;;;;;5013637;28;20178;-72
2023/11/28 08:51:27;;;;;;;6.30;5.70;;;4.50;99.90;;;;;;5012640;28;20179;-72
2023/11/28 08:53:55;;;;;;;6.23;5.33;;;4.40;99.90;;;;;;5013168;28;20562;-72
2023/11/28 08:56:20;;;;;;;6.10;5.45;;;4.50;99.90;;;;;;4995247;28;20317;-72
2023/11/28 08:58:46;;;;;;;8.10;4.73;;;4.70;99.90;;;;;;5013420;28;20258;-70
2023/11/28 09:01:12;;;;;;;6.60;5.10;;;4.60;99.90;;;;;;5013065;28;20574;-71
2023/11/28 09:03:37;;;;;;;5.07;4.57;;;4.80;99.90;;;;;;5012685;28;20179;-71
2023/11/28 09:06:03;;;;;;;4.50;4.20;;;4.60;99.90;;;;;;5013171;28;20174;-71
2023/11/28 09:08:29;;;;;;;6.63;6.13;;;4.50;99.90;;;;;;5012639;28;20175;-71
2023/11/28 09:10:56;;;;;;;7.13;6.63;;;4.80;99.90;;;;;;5012994;28;20713;-72
2023/11/28 09:13:22;;;;;;;5.13;4.72;;;4.70;99.90;;;;;;5012571;28;20199;-71
2023/11/28 09:15:48;;;;;;;6.97;5.70;;;4.70;99.90;;;;;;5013123;28;20587;-71
2023/11/28 09:18:13;;;;;;;6.40;5.80;;;4.80;99.90;;;;;;5013242;28;20267;-71
2023/11/28 09:20:39;;;;;;;5.90;4.40;;;4.90;99.90;;;;;;5008841;28;20177;-71
2023/11/28 09:23:05;;;;;;;6.50;6.10;;;4.80;99.90;;;;;;4994052;28;20581;-71
2023/11/28 09:25:30;;;;;;;6.67;6.07;;;4.90;99.90;;;;;;4992815;28;20191;-69
2023/11/28 09:27:56;;;;;;;7.43;6.40;;;5.00;99.90;;;;;;4993480;28;20176;-71
2023/11/28 09:30:22;;;;;;;6.50;6.00;;;4.90;99.90;;;;;;4979957;28;20195;-68
2023/11/28 09:32:48;;;;;;;4.83;4.43;;;4.90;99.90;;;;;;4999247;28;20182;-71
2023/11/28 09:35:14;;;;;;;6.20;5.60;;;4.80;99.90;;;;;;5012946;28;20214;-71
2023/11/28 09:37:39;;;;;;;6.47;5.85;;;4.90;99.90;;;;;;5006219;28;20498;-71
2023/11/28 09:40:07;;;;;;;6.53;6.00;;;5.00;99.90;;;;;;5001981;28;20275;-71
2023/11/28 09:42:35;;;;;;;7.40;6.85;;;5.00;99.90;;;;;;5006076;28;20250;-72
2023/11/28 09:45:05;;;;;;;5.50;5.00;;;5.00;99.90;;;;;;4975949;28;20240;-71
2023/11/28 09:47:38;;;;;;;6.70;6.20;;;4.90;99.90;;;;;;5012309;28;20182;-77
2023/11/28 09:50:05;;;;;;;4.25;3.95;;;5.00;99.90;;;;;;5006858;28;20170;-75
2023/11/28 09:52:33;;;;;;;6.03;5.53;;;5.00;99.90;;;;;;4982417;28;20549;-75
2023/11/28 09:55:00;;;;;;;5.10;4.70;;;5.00;99.90;;;;;;5003223;28;20682;-76
2023/11/28 09:57:32;;;;;;;4.60;4.20;;;5.00;99.90;;;;;;5009322;28;20183;-72
2023/11/28 09:59:58;;;;;;;6.50;5.15;;;5.10;99.90;;;;;;5012638;28;20167;-77
2023/11/28 10:02:30;;;;;;;5.07;4.65;;;5.00;99.90;;;;;;4994759;28;20180;-67
2023/11/28 10:04:56;;;;;;;6.32;5.93;;;5.00;99.90;;;;;;4996432;28;20183;-68
2023/11/28 10:07:31;;;;;;;4.87;4.50;;;5.30;99.90;;;;;;5001734;28;20175;-67
2023/11/28 10:10:00;;;;;;;5.57;5.07;;;5.80;99.90;;;;;;5007662;28;20409;-67
2023/11/28 10:12:26;;;;;;;6.80;6.30;;;6.40;99.90;;;;;;5011886;28;20396;-71
2023/11/28 10:14:53;;;;;;;6.23;5.87;;;7.00;99.90;;;;;;5012160;28;20462;-68
2023/11/28 10:17:19;;;;;;;7.33;6.73;;;7.70;99.90;;;;;;5006189;28;20399;-68
2023/11/28 10:19:46;;;;;;;5.77;5.37;;;8.30;98.80;;;;;;4977617;28;20514;-69
2023/11/28 10:22:15;;;;;;;8.27;7.87;;;9.10;97.30;;;;;;5012253;28;20410;-68
2023/11/28 10:24:41;;;;;;;5.70;5.30;;;9.60;93.20;;;;;;5011631;28;20636;-69
2023/11/28 10:27:09;;;;;;;6.63;6.13;;;9.50;91.80;;;;;;5012201;28;20448;-69
2023/11/28 10:29:35;;;;;;;6.07;5.47;;;9.30;92.80;;;;;;5011855;28;20408;-69
2023/11/28 10:32:01;;;;;;;6.63;6.03;;;9.30;93.20;;;;;;4994758;28;20414;-70
2023/11/28 10:34:29;;;;;;;5.33;4.93;;;9.30;93.50;;;;;;5014830;28;20630;-69
2023/11/28 10:36:58;;;;;;;5.47;5.10;;;9.00;93.70;;;;;;5016199;28;20406;-69
2023/11/28 10:39:26;;;;;;;5.07;4.67;;;8.40;94.50;;;;;;5015302;28;20935;-71
2023/11/28 10:41:52;;;;;;;4.70;4.40;;;8.10;95.60;;;;;;5016183;28;20402;-71
2023/11/28 10:44:17;;;;;;;7.20;6.70;;;7.90;96.30;;;;;;5016013;28;20892;-70
2023/11/28 10:46:43;;;;;;;4.67;4.27;;;7.80;96.50;;;;;;5015457;28;20509;-70
2023/11/28 10:49:09;;;;;;;6.07;5.47;;;7.40;97.50;;;;;;5016129;28;20182;-70
2023/11/28 10:51:36;;;;;;;5.20;4.77;;;7.10;99.10;;;;;;5015135;28;20176;-70
2023/11/28 10:54:07;;;;;;;5.43;4.93;;;7.00;99.70;;;;;;5015933;28;20448;-70
2023/11/28 10:56:46;;;;;;;7.70;7.30;;;6.90;99.50;;;;;;5015363;28;20394;-70
2023/11/28 10:59:33;;;;;;;6.83;6.23;;;6.80;99.90;;;;;;5015701;28;20484;-70
2023/11/28 11:02:01;;;;;;;4.27;3.87;;;6.70;99.90;;;;;;5015855;28;20430;-70
2023/11/28 11:04:28;;;;;;;5.30;4.90;;;6.60;99.90;;;;;;5015142;28;20511;-70
2023/11/28 11:06:54;;;;;;;6.50;6.10;;;6.50;99.90;;;;;;5015660;28;20417;-70
2023/11/28 11:09:24;;;;;;;6.03;5.53;;;6.40;99.90;;;;;;5015465;28;20445;-70
2023/11/28 11:11:55;;;;;;;5.20;4.70;;;6.30;99.90;;;;;;5015438;28;20622;-70
2023/11/28 11:14:39;;;;;;;6.37;5.87;;;6.20;99.90;;;;;;5015491;28;20450;-70
2023/11/28 11:17:25;;;;;;;5.47;4.97;;;5.90;99.90;;;;;;5015639;28;20385;-70
2023/11/28 11:19:53;;;;;;;4.67;4.27;;;6.00;99.90;;;;;;5015735;28;20807;-69
2023/11/28 11:22:21;;;;;;;5.10;4.67;;;6.10;99.90;;;;;;5015525;28;20420;-69
2023/11/28 11:24:47;;;;;;;4.50;4.20;;;6.10;99.90;;;;;;5014795;28;20417;-69
2023/11/28 11:27:13;;;;;;;5.00;4.50;;;6.10;99.90;;;;;;5015458;28;20412;-69
2023/11/28 11:29:39;;;;;;;5.40;4.40;;;6.20;99.90;;;;;;5014466;28;20455;-68
2023/11/28 11:32:10;;;;;;;5.27;4.77;;;6.20;99.90;;;;;;5015333;28;20173;-71
2023/11/28 11:34:49;;;;;;;5.37;4.97;;;6.30;99.90;;;;;;5014612;28;20835;-68
2023/11/28 11:37:17;;;;;;;5.80;5.30;;;6.20;99.90;;;;;;5015552;28;20902;-69
2023/11/28 11:39:45;;;;;;;5.90;5.40;;;6.30;99.90;;;;;;5014483;28;20786;-68
2023/11/28 11:42:17;;;;;;;5.50;5.10;;;6.30;99.90;;;;;;5014854;28;20411;-69
2023/11/28 11:45:00;;;;;;;5.00;4.60;;;6.30;99.90;;;;;;4995371;28;20562;-69
2023/11/28 11:47:28;;;;;;;5.87;5.37;;;6.30;99.90;;;;;;5014422;28;20734;-65
2023/11/28 11:49:56;;;;;;;7.03;6.43;;;6.20;99.90;;;;;;5015128;28;20447;-69
2023/11/28 11:52:25;;;;;;;5.73;5.23;;;6.20;99.90;;;;;;5014416;28;20982;-69
2023/11/28 11:55:01;;;;;;;5.00;4.60;;;6.20;99.90;;;;;;5014757;28;20816;-69
2023/11/28 11:57:27;;;;;;;5.33;4.57;;;6.20;99.90;;;;;;5014287;28;20398;-67
2023/11/28 11:59:53;;;;;;;5.90;5.40;;;6.10;99.90;;;;;;5015101;28;20408;-69
2023/11/28 12:02:18;;;;;;;5.67;5.17;;;6.10;99.90;;;;;;5014764;28;20176;-69
2023/11/28 12:04:44;;;;;;;6.73;6.27;;;6.10;99.90;;;;;;5014090;28;20272;-69
2023/11/28 12:07:11;;;;;;;5.67;5.27;;;6.00;99.90;;;;;;5014647;28;20633;-69
2023/11/28 12:09:38;;;;;;;5.67;5.17;;;6.10;99.90;;;;;;4996257;28;20179;-69
2023/11/28 12:12:05;;;;;;;4.82;4.53;;;6.10;99.90;;;;;;5014544;28;20417;-69
2023/11/28 12:14:36;;;;;;;5.70;5.20;;;6.10;99.90;;;;;;5013536;28;20693;-69
2023/11/28 12:17:03;;;;;;;5.73;5.33;;;6.10;99.90;;;;;;5014503;28;20428;-70
2023/11/28 12:19:29;;;;;;;5.87;5.43;;;6.20;99.90;;;;;;5013986;28;20809;-68
2023/11/28 12:22:05;;;;;;;6.07;5.57;;;6.30;99.90;;;;;;5014352;28;20420;-70
2023/11/28 12:24:31;;;;;;;5.53;4.93;;;6.50;99.90;;;;;;5013758;28;20450;-68
2023/11/28 12:27:02;;;;;;;4.93;4.53;;;6.50;99.90;;;;;;5014322;28;20458;-69
2023/11/28 12:29:30;;;;;;;5.40;4.90;;;6.40;99.90;;;;;;5013862;28;20408;-60
2023/11/28 12:31:56;;;;;;;5.10;4.70;;;6.40;99.90;;;;;;5014288;28;20404;-69
2023/11/28 12:34:24;;;;;;;5.20;4.70;;;6.50;99.90;;;;;;4996613;28;20459;-69
2023/11/28 12:36:50;;;;;;;5.73;5.13;;;6.50;99.90;;;;;;5013472;28;20407;-70
2023/11/28 12:39:24;;;;;;;4.93;4.63;;;6.50;99.90;;;;;;5014043;28;20439;-69
2023/11/28 12:41:50;;;;;;;4.43;4.13;;;6.50;99.90;;;;;;5013430;28;20574;-70
2023/11/28 12:44:19;;;;;;;4.70;4.30;;;6.60;99.90;;;;;;4980219;28;20498;-70
2023/11/28 12:46:48;;;;;;;5.90;5.30;;;6.40;99.90;;;;;;5013276;28;20764;-70
2023/11/28 12:49:15;;;;;;;5.23;4.83;;;6.40;99.90;;;;;;5014100;28;20411;-70
2023/11/28 12:51:42;;;;;;;5.17;4.67;;;6.30;99.90;;;;;;5013225;28;20471;-69
2023/11/28 12:54:11;;;;;;;5.30;4.90;;;6.30;99.90;;;;;;5013701;28;20810;-70
2023/11/28 12:56:52;;;;;;;4.90;4.50;;;6.30;99.90;;;;;;5012729;28;20797;-69